sensor_id;sensor_type;location;lat;lon;timestamp;P1;durP1;ratioP1;P2;durP2;ratioP2
15996;SDS011;8103;51.340;12.326;2024-01-11T00:00:26;74.30;;;36.27;;
15996;SDS011;8103;51.340;12.326;2024-01-11T00:02:53;68.33;;;33.20;;
15996;SDS011;8103;51.340;12.326;2024-01-11T00:05:20;65.73;;;33.73;;
15996;SDS011;8103;51.340;12.326;2024-01-11T00:07:47;72.40;;;34.10;;
15996;SDS011;8103;51.340;12.326;2024-01-11T00:10:15;70.23;;;34.47;;
15996;SDS011;8103;51.340;12.326;2024-01-11T00:12:42;71.63;;;36.03;;
15996;SDS011;8103;51.340;12.326;2024-01-11T00:15:09;70.93;;;34.50;;
15996;SDS011;8103;51.340;12.326;2024-01-11T00:17:36;62.10;;;33.60;;
15996;SDS011;8103;51.340;12.326;2024-01-11T00:20:03;69.53;;;34.10;;
15996;SDS011;8103;51.340;12.326;2024-01-11T00:22:30;63.03;;;34.37;;
15996;SDS011;8103;51.340;12.326;2024-01-11T00:24:58;67.40;;;33.73;;
15996;SDS011;8103;51.340;12.326;2024-01-11T00:27:24;68.17;;;32.43;;
15996;SDS011;8103;51.340;12.326;2024-01-11T00:29:51;65.40;;;32.13;;
15996;SDS011;8103;51.340;12.326;2024-01-11T00:32:19;69.73;;;35.70;;
15996;SDS011;8103;51.340;12.326;2024-01-11T00:34:47;68.83;;;34.47;;
15996;SDS011;8103;51.340;12.326;2024-01-11T00:37:14;69.87;;;32.40;;
15996;SDS011;8103;51.340;12.326;2024-01-11T00:39:40;73.27;;;33.90;;
15996;SDS011;8103;51.340;12.326;2024-01-11T00:42:07;64.27;;;34.33;;
15996;SDS011;8103;51.340;12.326;2024-01-11T00:44:34;64.13;;;34.20;;
15996;SDS011;8103;51.340;12.326;2024-01-11T00:47:01;63.70;;;31.40;;
15996;SDS011;8103;51.340;12.326;2024-01-11T00:49:27;61.00;;;33.53;;
15996;SDS011;8103;51.340;12.326;2024-01-11T00:51:54;69.07;;;36.37;;
15996;SDS011;8103;51.340;12.326;2024-01-11T00:54:20;76.13;;;35.00;;
15996;SDS011;8103;51.340;12.326;2024-01-11T00:56:47;71.63;;;34.53;;
15996;SDS011;8103;51.340;12.326;2024-01-11T00:59:14;70.23;;;36.70;;
15996;SDS011;8103;51.340;12.326;2024-01-11T01:01:46;64.90;;;31.43;;
15996;SDS011;8103;51.340;12.326;2024-01-11T01:04:13;74.23;;;35.93;;
15996;SDS011;8103;51.340;12.326;2024-01-11T01:06:41;76.73;;;37.13;;
15996;SDS011;8103;51.340;12.326;2024-01-11T01:09:07;67.07;;;35.47;;
15996;SDS011;8103;51.340;12.326;2024-01-11T01:11:34;66.67;;;34.53;;
15996;SDS011;8103;51.340;12.326;2024-01-11T01:14:01;65.60;;;34.20;;
15996;SDS011;8103;51.340;12.326;2024-01-11T01:16:28;65.37;;;34.93;;
15996;SDS011;8103;51.340;12.326;2024-01-11T01:18:55;62.20;;;34.07;;
15996;SDS011;8103;51.340;12.326;2024-01-11T01:21:21;70.90;;;34.20;;
15996;SDS011;8103;51.340;12.326;2024-01-11T01:23:48;60.93;;;33.03;;
15996;SDS011;8103;51.340;12.326;2024-01-11T01:26:15;54.13;;;32.50;;
15996;SDS011;8103;51.340;12.326;2024-01-11T01:28:41;71.80;;;34.93;;
15996;SDS011;8103;51.340;12.326;2024-01-11T01:31:09;65.90;;;34.27;;
15996;SDS011;8103;51.340;12.326;2024-01-11T01:33:36;69.43;;;34.83;;
15996;SDS011;8103;51.340;12.326;2024-01-11T01:36:03;71.67;;;36.70;;
15996;SDS011;8103;51.340;12.326;2024-01-11T01:38:34;76.50;;;34.73;;
15996;SDS011;8103;51.340;12.326;2024-01-11T01:41:01;63.97;;;32.67;;
15996;SDS011;8103;51.340;12.326;2024-01-11T01:43:27;70.67;;;35.40;;
15996;SDS011;8103;51.340;12.326;2024-01-11T01:45:54;64.17;;;34.90;;
15996;SDS011;8103;51.340;12.326;2024-01-11T01:48:21;69.57;;;35.80;;
15996;SDS011;8103;51.340;12.326;2024-01-11T01:50:49;62.93;;;35.03;;
15996;SDS011;8103;51.340;12.326;2024-01-11T01:53:21;63.87;;;33.97;;
15996;SDS011;8103;51.340;12.326;2024-01-11T01:55:50;75.23;;;34.20;;
15996;SDS011;8103;51.340;12.326;2024-01-11T01:58:18;63.90;;;34.00;;
15996;SDS011;8103;51.340;12.326;2024-01-11T02:00:46;69.50;;;35.00;;
15996;SDS011;8103;51.340;12.326;2024-01-11T02:03:15;69.50;;;35.33;;
15996;SDS011;8103;51.340;12.326;2024-01-11T02:05:42;72.07;;;37.10;;
15996;SDS011;8103;51.340;12.326;2024-01-11T02:08:10;65.67;;;33.30;;
15996;SDS011;8103;51.340;12.326;2024-01-11T02:10:43;70.87;;;36.07;;
15996;SDS011;8103;51.340;12.326;2024-01-11T02:13:11;69.03;;;35.87;;
15996;SDS011;8103;51.340;12.326;2024-01-11T02:15:39;65.70;;;34.70;;
15996;SDS011;8103;51.340;12.326;2024-01-11T02:18:05;66.53;;;35.93;;
15996;SDS011;8103;51.340;12.326;2024-01-11T02:20:33;60.93;;;34.90;;
15996;SDS011;8103;51.340;12.326;2024-01-11T02:23:01;66.00;;;32.70;;
15996;SDS011;8103;51.340;12.326;2024-01-11T02:25:32;69.07;;;32.13;;
15996;SDS011;8103;51.340;12.326;2024-01-11T02:27:59;66.77;;;33.47;;
15996;SDS011;8103;51.340;12.326;2024-01-11T02:30:26;69.43;;;35.03;;
15996;SDS011;8103;51.340;12.326;2024-01-11T02:32:52;69.57;;;34.27;;
15996;SDS011;8103;51.340;12.326;2024-01-11T02:35:20;71.43;;;33.13;;
15996;SDS011;8103;51.340;12.326;2024-01-11T02:37:47;60.83;;;32.77;;
15996;SDS011;8103;51.340;12.326;2024-01-11T02:40:14;63.10;;;33.83;;
15996;SDS011;8103;51.340;12.326;2024-01-11T02:42:41;62.40;;;30.83;;
15996;SDS011;8103;51.340;12.326;2024-01-11T02:45:08;61.40;;;30.17;;
15996;SDS011;8103;51.340;12.326;2024-01-11T02:47:38;69.50;;;33.33;;
15996;SDS011;8103;51.340;12.326;2024-01-11T02:50:06;64.17;;;32.17;;
15996;SDS011;8103;51.340;12.326;2024-01-11T02:52:33;64.23;;;31.53;;
15996;SDS011;8103;51.340;12.326;2024-01-11T02:55:00;63.33;;;33.47;;
15996;SDS011;8103;51.340;12.326;2024-01-11T02:57:27;57.07;;;30.93;;
15996;SDS011;8103;51.340;12.326;2024-01-11T02:59:54;60.17;;;33.87;;
15996;SDS011;8103;51.340;12.326;2024-01-11T03:02:21;61.03;;;32.90;;
15996;SDS011;8103;51.340;12.326;2024-01-11T03:04:47;53.40;;;32.00;;
15996;SDS011;8103;51.340;12.326;2024-01-11T03:07:14;65.40;;;33.73;;
15996;SDS011;8103;51.340;12.326;2024-01-11T03:09:41;66.63;;;34.57;;
15996;SDS011;8103;51.340;12.326;2024-01-11T03:12:08;68.33;;;32.40;;
15996;SDS011;8103;51.340;12.326;2024-01-11T03:14:34;76.57;;;36.00;;
15996;SDS011;8103;51.340;12.326;2024-01-11T03:17:01;73.67;;;35.80;;
15996;SDS011;8103;51.340;12.326;2024-01-11T03:19:28;61.80;;;32.30;;
15996;SDS011;8103;51.340;12.326;2024-01-11T03:21:55;57.80;;;31.40;;
15996;SDS011;8103;51.340;12.326;2024-01-11T03:24:22;62.53;;;34.07;;
15996;SDS011;8103;51.340;12.326;2024-01-11T03:26:48;60.57;;;32.27;;
15996;SDS011;8103;51.340;12.326;2024-01-11T03:29:15;67.07;;;32.80;;
15996;SDS011;8103;51.340;12.326;2024-01-11T03:31:42;61.77;;;31.07;;
15996;SDS011;8103;51.340;12.326;2024-01-11T03:34:11;66.77;;;33.93;;
15996;SDS011;8103;51.340;12.326;2024-01-11T03:36:38;57.17;;;32.17;;
15996;SDS011;8103;51.340;12.326;2024-01-11T03:39:04;68.03;;;33.77;;
15996;SDS011;8103;51.340;12.326;2024-01-11T03:41:32;60.87;;;30.33;;
15996;SDS011;8103;51.340;12.326;2024-01-11T03:43:59;67.80;;;33.03;;
15996;SDS011;8103;51.340;12.326;2024-01-11T03:46:26;63.37;;;31.97;;
15996;SDS011;8103;51.340;12.326;2024-01-11T03:48:52;64.07;;;32.33;;
15996;SDS011;8103;51.340;12.326;2024-01-11T03:51:19;63.70;;;30.57;;
15996;SDS011;8103;51.340;12.326;2024-01-11T03:53:46;64.97;;;31.83;;
15996;SDS011;8103;51.340;12.326;2024-01-11T03:56:13;70.87;;;36.40;;
15996;SDS011;8103;51.340;12.326;2024-01-11T03:58:39;59.33;;;31.97;;
15996;SDS011;8103;51.340;12.326;2024-01-11T04:01:07;59.50;;;29.50;;
15996;SDS011;8103;51.340;12.326;2024-01-11T04:03:36;66.40;;;33.00;;
15996;SDS011;8103;51.340;12.326;2024-01-11T04:06:04;58.90;;;31.07;;
15996;SDS011;8103;51.340;12.326;2024-01-11T04:08:31;62.03;;;33.37;;
15996;SDS011;8103;51.340;12.326;2024-01-11T04:10:57;56.73;;;29.13;;
15996;SDS011;8103;51.340;12.326;2024-01-11T04:13:27;62.93;;;31.33;;
15996;SDS011;8103;51.340;12.326;2024-01-11T04:15:54;58.13;;;28.77;;
15996;SDS011;8103;51.340;12.326;2024-01-11T04:18:20;54.37;;;27.67;;
15996;SDS011;8103;51.340;12.326;2024-01-11T04:20:47;60.67;;;27.97;;
15996;SDS011;8103;51.340;12.326;2024-01-11T04:23:14;63.53;;;32.33;;
15996;SDS011;8103;51.340;12.326;2024-01-11T04:25:41;67.10;;;32.60;;
15996;SDS011;8103;51.340;12.326;2024-01-11T04:28:07;66.97;;;30.87;;
15996;SDS011;8103;51.340;12.326;2024-01-11T04:30:35;66.17;;;32.50;;
15996;SDS011;8103;51.340;12.326;2024-01-11T04:33:02;58.20;;;30.60;;
15996;SDS011;8103;51.340;12.326;2024-01-11T04:35:29;59.77;;;30.53;;
15996;SDS011;8103;51.340;12.326;2024-01-11T04:37:56;63.73;;;31.97;;
15996;SDS011;8103;51.340;12.326;2024-01-11T04:40:23;63.50;;;31.20;;
15996;SDS011;8103;51.340;12.326;2024-01-11T04:42:49;57.67;;;30.97;;
15996;SDS011;8103;51.340;12.326;2024-01-11T04:45:16;60.07;;;33.17;;
15996;SDS011;8103;51.340;12.326;2024-01-11T04:47:43;67.00;;;31.20;;
15996;SDS011;8103;51.340;12.326;2024-01-11T04:50:10;61.23;;;30.53;;
15996;SDS011;8103;51.340;12.326;2024-01-11T04:52:36;74.33;;;34.57;;
15996;SDS011;8103;51.340;12.326;2024-01-11T04:55:03;66.03;;;31.60;;
15996;SDS011;8103;51.340;12.326;2024-01-11T04:57:30;57.90;;;30.90;;
15996;SDS011;8103;51.340;12.326;2024-01-11T04:59:57;60.70;;;31.73;;
15996;SDS011;8103;51.340;12.326;2024-01-11T05:02:26;58.77;;;31.93;;
15996;SDS011;8103;51.340;12.326;2024-01-11T05:04:52;52.90;;;30.27;;
15996;SDS011;8103;51.340;12.326;2024-01-11T05:07:19;63.07;;;32.20;;
15996;SDS011;8103;51.340;12.326;2024-01-11T05:09:46;66.07;;;32.00;;
15996;SDS011;8103;51.340;12.326;2024-01-11T05:12:12;64.37;;;31.30;;
15996;SDS011;8103;51.340;12.326;2024-01-11T05:14:39;71.20;;;33.90;;
15996;SDS011;8103;51.340;12.326;2024-01-11T05:17:05;57.93;;;31.70;;
15996;SDS011;8103;51.340;12.326;2024-01-11T05:19:32;59.77;;;32.40;;
15996;SDS011;8103;51.340;12.326;2024-01-11T05:21:59;60.70;;;33.77;;
15996;SDS011;8103;51.340;12.326;2024-01-11T05:24:26;56.57;;;31.57;;
15996;SDS011;8103;51.340;12.326;2024-01-11T05:26:53;60.00;;;32.13;;
15996;SDS011;8103;51.340;12.326;2024-01-11T05:29:20;63.93;;;32.70;;
15996;SDS011;8103;51.340;12.326;2024-01-11T05:31:46;70.87;;;32.57;;
15996;SDS011;8103;51.340;12.326;2024-01-11T05:34:13;64.20;;;31.43;;
15996;SDS011;8103;51.340;12.326;2024-01-11T05:36:40;70.30;;;34.63;;
15996;SDS011;8103;51.340;12.326;2024-01-11T05:39:07;63.07;;;30.93;;
15996;SDS011;8103;51.340;12.326;2024-01-11T05:41:34;68.43;;;33.33;;
15996;SDS011;8103;51.340;12.326;2024-01-11T05:44:00;61.17;;;30.30;;
15996;SDS011;8103;51.340;12.326;2024-01-11T05:46:27;57.73;;;31.30;;
15996;SDS011;8103;51.340;12.326;2024-01-11T05:48:56;77.13;;;34.43;;
15996;SDS011;8103;51.340;12.326;2024-01-11T05:51:23;64.27;;;30.80;;
15996;SDS011;8103;51.340;12.326;2024-01-11T05:53:50;63.50;;;30.73;;
15996;SDS011;8103;51.340;12.326;2024-01-11T05:56:18;57.97;;;30.43;;
15996;SDS011;8103;51.340;12.326;2024-01-11T05:58:46;57.60;;;25.80;;
15996;SDS011;8103;51.340;12.326;2024-01-11T06:01:13;60.37;;;30.03;;
15996;SDS011;8103;51.340;12.326;2024-01-11T06:03:40;67.07;;;32.37;;
15996;SDS011;8103;51.340;12.326;2024-01-11T06:06:07;63.57;;;29.63;;
15996;SDS011;8103;51.340;12.326;2024-01-11T06:08:34;66.10;;;31.30;;
15996;SDS011;8103;51.340;12.326;2024-01-11T06:11:01;79.47;;;34.83;;
15996;SDS011;8103;51.340;12.326;2024-01-11T06:13:28;63.03;;;32.43;;
15996;SDS011;8103;51.340;12.326;2024-01-11T06:15:55;60.40;;;33.07;;
15996;SDS011;8103;51.340;12.326;2024-01-11T06:18:22;72.13;;;34.47;;
15996;SDS011;8103;51.340;12.326;2024-01-11T06:20:49;60.07;;;29.63;;
15996;SDS011;8103;51.340;12.326;2024-01-11T06:23:15;71.40;;;33.83;;
15996;SDS011;8103;51.340;12.326;2024-01-11T06:29:30;69.47;;;33.20;;
15996;SDS011;8103;51.340;12.326;2024-01-11T06:31:57;61.70;;;31.53;;
15996;SDS011;8103;51.340;12.326;2024-01-11T06:34:23;61.27;;;31.80;;
15996;SDS011;8103;51.340;12.326;2024-01-11T06:36:50;70.37;;;32.27;;
15996;SDS011;8103;51.340;12.326;2024-01-11T06:39:17;67.77;;;32.60;;
15996;SDS011;8103;51.340;12.326;2024-01-11T06:41:44;72.47;;;34.20;;
15996;SDS011;8103;51.340;12.326;2024-01-11T06:44:10;64.40;;;33.57;;
15996;SDS011;8103;51.340;12.326;2024-01-11T06:46:38;69.83;;;34.07;;
15996;SDS011;8103;51.340;12.326;2024-01-11T06:49:07;67.07;;;32.47;;
15996;SDS011;8103;51.340;12.326;2024-01-11T06:51:34;66.47;;;32.50;;
15996;SDS011;8103;51.340;12.326;2024-01-11T06:54:01;75.43;;;36.20;;
15996;SDS011;8103;51.340;12.326;2024-01-11T06:56:28;65.50;;;32.40;;
15996;SDS011;8103;51.340;12.326;2024-01-11T06:58:55;66.00;;;34.73;;
15996;SDS011;8103;51.340;12.326;2024-01-11T07:01:22;73.20;;;35.17;;
15996;SDS011;8103;51.340;12.326;2024-01-11T07:03:49;64.33;;;34.93;;
15996;SDS011;8103;51.340;12.326;2024-01-11T07:06:16;68.50;;;34.70;;
15996;SDS011;8103;51.340;12.326;2024-01-11T07:08:43;67.13;;;33.33;;
15996;SDS011;8103;51.340;12.326;2024-01-11T07:11:10;74.60;;;35.83;;
15996;SDS011;8103;51.340;12.326;2024-01-11T07:13:37;69.60;;;35.53;;
15996;SDS011;8103;51.340;12.326;2024-01-11T07:16:04;69.10;;;33.80;;
15996;SDS011;8103;51.340;12.326;2024-01-11T07:18:31;74.07;;;34.07;;
15996;SDS011;8103;51.340;12.326;2024-01-11T07:20:59;65.57;;;36.30;;
15996;SDS011;8103;51.340;12.326;2024-01-11T07:23:26;62.97;;;34.33;;
15996;SDS011;8103;51.340;12.326;2024-01-11T07:25:53;74.17;;;37.33;;
15996;SDS011;8103;51.340;12.326;2024-01-11T07:28:20;69.20;;;35.33;;
15996;SDS011;8103;51.340;12.326;2024-01-11T07:30:54;71.10;;;34.87;;
15996;SDS011;8103;51.340;12.326;2024-01-11T07:33:21;65.30;;;32.73;;
15996;SDS011;8103;51.340;12.326;2024-01-11T07:35:48;65.40;;;34.60;;
15996;SDS011;8103;51.340;12.326;2024-01-11T07:38:15;65.53;;;35.80;;
15996;SDS011;8103;51.340;12.326;2024-01-11T07:40:41;73.57;;;37.50;;
15996;SDS011;8103;51.340;12.326;2024-01-11T07:43:09;61.47;;;33.57;;
15996;SDS011;8103;51.340;12.326;2024-01-11T07:45:36;66.77;;;35.33;;
15996;SDS011;8103;51.340;12.326;2024-01-11T07:48:02;63.43;;;33.37;;
15996;SDS011;8103;51.340;12.326;2024-01-11T07:50:30;72.17;;;35.40;;
15996;SDS011;8103;51.340;12.326;2024-01-11T07:52:57;73.40;;;36.03;;
15996;SDS011;8103;51.340;12.326;2024-01-11T07:55:23;72.90;;;36.43;;
15996;SDS011;8103;51.340;12.326;2024-01-11T07:57:50;66.00;;;32.20;;
15996;SDS011;8103;51.340;12.326;2024-01-11T08:00:17;67.70;;;33.87;;
15996;SDS011;8103;51.340;12.326;2024-01-11T08:02:44;72.60;;;33.37;;
15996;SDS011;8103;51.340;12.326;2024-01-11T08:05:11;75.68;;;46.75;;
15996;SDS011;8103;51.340;12.326;2024-01-11T08:07:38;68.73;;;38.50;;
15996;SDS011;8103;51.340;12.326;2024-01-11T08:10:05;58.57;;;36.23;;
15996;SDS011;8103;51.340;12.326;2024-01-11T08:12:32;64.23;;;34.97;;
15996;SDS011;8103;51.340;12.326;2024-01-11T08:14:59;74.13;;;37.47;;
15996;SDS011;8103;51.340;12.326;2024-01-11T08:17:26;81.77;;;38.00;;
15996;SDS011;8103;51.340;12.326;2024-01-11T08:19:52;73.73;;;35.33;;
15996;SDS011;8103;51.340;12.326;2024-01-11T08:22:21;68.10;;;32.30;;
15996;SDS011;8103;51.340;12.326;2024-01-11T08:24:52;59.40;;;31.63;;
15996;SDS011;8103;51.340;12.326;2024-01-11T08:27:19;52.93;;;29.57;;
15996;SDS011;8103;51.340;12.326;2024-01-11T08:29:45;60.57;;;31.03;;
15996;SDS011;8103;51.340;12.326;2024-01-11T08:32:13;74.37;;;34.63;;
15996;SDS011;8103;51.340;12.326;2024-01-11T08:34:44;74.23;;;36.73;;
15996;SDS011;8103;51.340;12.326;2024-01-11T08:37:11;75.40;;;35.37;;
15996;SDS011;8103;51.340;12.326;2024-01-11T08:39:37;69.77;;;34.30;;
15996;SDS011;8103;51.340;12.326;2024-01-11T08:42:07;65.30;;;33.60;;
15996;SDS011;8103;51.340;12.326;2024-01-11T08:44:33;74.00;;;36.67;;
15996;SDS011;8103;51.340;12.326;2024-01-11T08:47:00;66.00;;;34.07;;
15996;SDS011;8103;51.340;12.326;2024-01-11T08:49:28;76.07;;;36.60;;
15996;SDS011;8103;51.340;12.326;2024-01-11T08:51:55;63.20;;;34.73;;
15996;SDS011;8103;51.340;12.326;2024-01-11T08:54:22;66.03;;;34.07;;
15996;SDS011;8103;51.340;12.326;2024-01-11T08:56:48;62.90;;;34.97;;
15996;SDS011;8103;51.340;12.326;2024-01-11T08:59:15;60.93;;;30.37;;
15996;SDS011;8103;51.340;12.326;2024-01-11T09:01:42;64.78;;;33.58;;
15996;SDS011;8103;51.340;12.326;2024-01-11T09:04:15;67.75;;;35.85;;
15996;SDS011;8103;51.340;12.326;2024-01-11T09:06:43;67.82;;;32.13;;
15996;SDS011;8103;51.340;12.326;2024-01-11T09:09:10;58.42;;;31.05;;
15996;SDS011;8103;51.340;12.326;2024-01-11T09:11:40;68.55;;;36.08;;
15996;SDS011;8103;51.340;12.326;2024-01-11T09:14:06;60.58;;;33.20;;
15996;SDS011;8103;51.340;12.326;2024-01-11T09:16:33;68.22;;;36.78;;
15996;SDS011;8103;51.340;12.326;2024-01-11T09:19:00;59.80;;;32.67;;
15996;SDS011;8103;51.340;12.326;2024-01-11T09:21:27;59.75;;;33.92;;
15996;SDS011;8103;51.340;12.326;2024-01-11T09:23:54;57.72;;;34.55;;
15996;SDS011;8103;51.340;12.326;2024-01-11T09:26:21;62.40;;;35.08;;
15996;SDS011;8103;51.340;12.326;2024-01-11T09:28:48;58.38;;;34.05;;
15996;SDS011;8103;51.340;12.326;2024-01-11T09:31:15;56.33;;;33.33;;
15996;SDS011;8103;51.340;12.326;2024-01-11T09:33:42;52.72;;;32.25;;
15996;SDS011;8103;51.340;12.326;2024-01-11T09:36:12;49.65;;;30.45;;
15996;SDS011;8103;51.340;12.326;2024-01-11T09:38:40;52.55;;;33.70;;
15996;SDS011;8103;51.340;12.326;2024-01-11T09:41:07;49.83;;;30.65;;
15996;SDS011;8103;51.340;12.326;2024-01-11T09:43:36;53.15;;;32.08;;
15996;SDS011;8103;51.340;12.326;2024-01-11T09:46:04;51.80;;;31.73;;
15996;SDS011;8103;51.340;12.326;2024-01-11T09:48:32;60.78;;;33.03;;
15996;SDS011;8103;51.340;12.326;2024-01-11T09:51:07;53.55;;;34.25;;
15996;SDS011;8103;51.340;12.326;2024-01-11T09:53:37;54.22;;;32.20;;
15996;SDS011;8103;51.340;12.326;2024-01-11T09:56:08;51.97;;;33.35;;
15996;SDS011;8103;51.340;12.326;2024-01-11T09:58:36;53.08;;;33.13;;
15996;SDS011;8103;51.340;12.326;2024-01-11T10:01:03;52.47;;;33.50;;
15996;SDS011;8103;51.340;12.326;2024-01-11T10:03:39;54.58;;;33.17;;
15996;SDS011;8103;51.340;12.326;2024-01-11T10:06:07;49.83;;;33.28;;
15996;SDS011;8103;51.340;12.326;2024-01-11T10:08:36;55.38;;;34.53;;
15996;SDS011;8103;51.340;12.326;2024-01-11T10:11:03;53.15;;;33.15;;
15996;SDS011;8103;51.340;12.326;2024-01-11T10:13:30;54.45;;;34.65;;
15996;SDS011;8103;51.340;12.326;2024-01-11T10:16:04;55.25;;;34.72;;
15996;SDS011;8103;51.340;12.326;2024-01-11T10:18:41;54.63;;;35.20;;
15996;SDS011;8103;51.340;12.326;2024-01-11T10:21:08;54.63;;;34.45;;
15996;SDS011;8103;51.340;12.326;2024-01-11T10:23:37;60.42;;;34.88;;
15996;SDS011;8103;51.340;12.326;2024-01-11T10:26:05;61.03;;;35.53;;
15996;SDS011;8103;51.340;12.326;2024-01-11T10:28:33;67.03;;;38.22;;
15996;SDS011;8103;51.340;12.326;2024-01-11T10:31:04;71.40;;;35.72;;
15996;SDS011;8103;51.340;12.326;2024-01-11T10:33:34;69.18;;;35.40;;
15996;SDS011;8103;51.340;12.326;2024-01-11T10:36:02;60.40;;;33.25;;
15996;SDS011;8103;51.340;12.326;2024-01-11T10:38:30;55.15;;;32.25;;
15996;SDS011;8103;51.340;12.326;2024-01-11T10:40:58;59.58;;;33.90;;
15996;SDS011;8103;51.340;12.326;2024-01-11T10:47:13;65.03;;;34.63;;
15996;SDS011;8103;51.340;12.326;2024-01-11T10:49:41;62.07;;;32.70;;
15996;SDS011;8103;51.340;12.326;2024-01-11T10:52:12;66.40;;;36.17;;
15996;SDS011;8103;51.340;12.326;2024-01-11T10:54:40;69.93;;;36.47;;
15996;SDS011;8103;51.340;12.326;2024-01-11T10:57:08;68.40;;;35.57;;
15996;SDS011;8103;51.340;12.326;2024-01-11T10:59:36;60.13;;;33.43;;
15996;SDS011;8103;51.340;12.326;2024-01-11T11:02:06;64.38;;;35.10;;
15996;SDS011;8103;51.340;12.326;2024-01-11T11:04:36;66.70;;;36.57;;
15996;SDS011;8103;51.340;12.326;2024-01-11T11:07:04;67.13;;;34.80;;
15996;SDS011;8103;51.340;12.326;2024-01-11T11:09:34;66.67;;;35.93;;
15996;SDS011;8103;51.340;12.326;2024-01-11T11:12:01;67.73;;;35.47;;
15996;SDS011;8103;51.340;12.326;2024-01-11T11:14:30;64.90;;;35.63;;
15996;SDS011;8103;51.340;12.326;2024-01-11T11:17:01;68.40;;;36.63;;
15996;SDS011;8103;51.340;12.326;2024-01-11T11:19:28;67.43;;;35.23;;
15996;SDS011;8103;51.340;12.326;2024-01-11T11:21:55;61.28;;;34.72;;
15996;SDS011;8103;51.340;12.326;2024-01-11T11:24:22;61.45;;;32.47;;
15996;SDS011;8103;51.340;12.326;2024-01-11T11:26:49;62.45;;;32.22;;
15996;SDS011;8103;51.340;12.326;2024-01-11T11:29:16;62.05;;;37.08;;
15996;SDS011;8103;51.340;12.326;2024-01-11T11:31:44;61.45;;;33.67;;
15996;SDS011;8103;51.340;12.326;2024-01-11T11:34:13;57.45;;;33.38;;
15996;SDS011;8103;51.340;12.326;2024-01-11T11:36:40;57.70;;;33.58;;
15996;SDS011;8103;51.340;12.326;2024-01-11T11:39:09;64.78;;;34.53;;
15996;SDS011;8103;51.340;12.326;2024-01-11T11:41:40;57.92;;;33.40;;
15996;SDS011;8103;51.340;12.326;2024-01-11T11:44:08;57.97;;;33.80;;
15996;SDS011;8103;51.340;12.326;2024-01-11T11:46:42;54.78;;;35.28;;
15996;SDS011;8103;51.340;12.326;2024-01-11T11:49:10;61.67;;;33.67;;
15996;SDS011;8103;51.340;12.326;2024-01-11T11:51:38;63.72;;;36.08;;
15996;SDS011;8103;51.340;12.326;2024-01-11T11:54:06;59.20;;;35.22;;
15996;SDS011;8103;51.340;12.326;2024-01-11T11:56:35;59.88;;;35.22;;
15996;SDS011;8103;51.340;12.326;2024-01-11T11:59:03;64.18;;;34.92;;
15996;SDS011;8103;51.340;12.326;2024-01-11T12:01:30;64.85;;;34.33;;
15996;SDS011;8103;51.340;12.326;2024-01-11T12:03:58;59.35;;;35.03;;
15996;SDS011;8103;51.340;12.326;2024-01-11T12:06:25;60.95;;;34.05;;
15996;SDS011;8103;51.340;12.326;2024-01-11T12:08:54;60.28;;;34.53;;
15996;SDS011;8103;51.340;12.326;2024-01-11T12:11:22;58.17;;;34.70;;
15996;SDS011;8103;51.340;12.326;2024-01-11T12:13:50;63.28;;;35.70;;
15996;SDS011;8103;51.340;12.326;2024-01-11T12:16:18;56.05;;;36.42;;
15996;SDS011;8103;51.340;12.326;2024-01-11T12:18:45;60.90;;;33.83;;
15996;SDS011;8103;51.340;12.326;2024-01-11T12:21:12;57.63;;;33.83;;
15996;SDS011;8103;51.340;12.326;2024-01-11T12:23:40;61.38;;;34.05;;
15996;SDS011;8103;51.340;12.326;2024-01-11T12:26:08;60.00;;;33.47;;
15996;SDS011;8103;51.340;12.326;2024-01-11T12:28:39;59.83;;;33.60;;
15996;SDS011;8103;51.340;12.326;2024-01-11T12:31:07;58.53;;;32.00;;
15996;SDS011;8103;51.340;12.326;2024-01-11T12:33:34;63.13;;;35.25;;
15996;SDS011;8103;51.340;12.326;2024-01-11T12:36:01;58.95;;;33.40;;
15996;SDS011;8103;51.340;12.326;2024-01-11T12:38:28;71.90;;;36.35;;
15996;SDS011;8103;51.340;12.326;2024-01-11T12:40:55;61.42;;;35.17;;
15996;SDS011;8103;51.340;12.326;2024-01-11T12:43:22;67.97;;;35.47;;
15996;SDS011;8103;51.340;12.326;2024-01-11T12:45:50;62.63;;;36.05;;
15996;SDS011;8103;51.340;12.326;2024-01-11T12:48:17;65.82;;;34.28;;
15996;SDS011;8103;51.340;12.326;2024-01-11T12:50:45;62.83;;;35.17;;
15996;SDS011;8103;51.340;12.326;2024-01-11T12:53:15;65.03;;;37.20;;
15996;SDS011;8103;51.340;12.326;2024-01-11T12:55:48;61.30;;;35.03;;
15996;SDS011;8103;51.340;12.326;2024-01-11T12:58:19;66.55;;;36.40;;
15996;SDS011;8103;51.340;12.326;2024-01-11T13:00:52;55.97;;;34.00;;
15996;SDS011;8103;51.340;12.326;2024-01-11T13:03:19;51.15;;;32.47;;
15996;SDS011;8103;51.340;12.326;2024-01-11T13:05:47;55.72;;;31.25;;
15996;SDS011;8103;51.340;12.326;2024-01-11T13:08:14;65.72;;;35.88;;
15996;SDS011;8103;51.340;12.326;2024-01-11T13:10:43;64.53;;;35.65;;
15996;SDS011;8103;51.340;12.326;2024-01-11T13:13:10;62.40;;;33.42;;
15996;SDS011;8103;51.340;12.326;2024-01-11T13:15:36;53.00;;;30.77;;
15996;SDS011;8103;51.340;12.326;2024-01-11T13:18:03;63.75;;;34.10;;
15996;SDS011;8103;51.340;12.326;2024-01-11T13:20:31;60.95;;;35.40;;
15996;SDS011;8103;51.340;12.326;2024-01-11T13:25:40;61.60;;;31.92;;
15996;SDS011;8103;51.340;12.326;2024-01-11T13:28:08;60.17;;;33.47;;
15996;SDS011;8103;51.340;12.326;2024-01-11T13:30:37;59.20;;;34.00;;
15996;SDS011;8103;51.340;12.326;2024-01-11T13:33:08;58.60;;;31.83;;
15996;SDS011;8103;51.340;12.326;2024-01-11T13:35:37;53.67;;;32.83;;
15996;SDS011;8103;51.340;12.326;2024-01-11T13:38:04;52.00;;;30.55;;
15996;SDS011;8103;51.340;12.326;2024-01-11T13:40:31;49.22;;;30.80;;
15996;SDS011;8103;51.340;12.326;2024-01-11T13:42:58;43.28;;;26.75;;
15996;SDS011;8103;51.340;12.326;2024-01-11T13:45:25;40.53;;;25.70;;
15996;SDS011;8103;51.340;12.326;2024-01-11T13:47:52;39.70;;;22.67;;
15996;SDS011;8103;51.340;12.326;2024-01-11T13:50:20;38.40;;;23.55;;
15996;SDS011;8103;51.340;12.326;2024-01-11T13:52:50;38.30;;;22.52;;
15996;SDS011;8103;51.340;12.326;2024-01-11T13:55:17;39.20;;;23.15;;
15996;SDS011;8103;51.340;12.326;2024-01-11T13:57:44;49.95;;;24.02;;
15996;SDS011;8103;51.340;12.326;2024-01-11T14:00:11;39.38;;;22.55;;
15996;SDS011;8103;51.340;12.326;2024-01-11T14:02:39;35.83;;;22.02;;
15996;SDS011;8103;51.340;12.326;2024-01-11T14:05:07;33.90;;;21.35;;
15996;SDS011;8103;51.340;12.326;2024-01-11T14:07:38;29.08;;;20.73;;
15996;SDS011;8103;51.340;12.326;2024-01-11T14:10:06;29.10;;;19.00;;
15996;SDS011;8103;51.340;12.326;2024-01-11T14:12:34;29.42;;;19.35;;
15996;SDS011;8103;51.340;12.326;2024-01-11T14:15:05;34.58;;;20.45;;
15996;SDS011;8103;51.340;12.326;2024-01-11T14:17:37;29.33;;;18.52;;
15996;SDS011;8103;51.340;12.326;2024-01-11T14:20:05;37.65;;;22.55;;
15996;SDS011;8103;51.340;12.326;2024-01-11T14:22:38;34.85;;;22.35;;
15996;SDS011;8103;51.340;12.326;2024-01-11T14:25:06;32.58;;;20.02;;
15996;SDS011;8103;51.340;12.326;2024-01-11T14:27:33;29.92;;;19.48;;
15996;SDS011;8103;51.340;12.326;2024-01-11T14:30:00;31.30;;;19.23;;
15996;SDS011;8103;51.340;12.326;2024-01-11T14:32:27;34.05;;;21.45;;